Time;durP1;ratioP1;P1;durP2;ratioP2;P2;SDS_P1;SDS_P2;PMS_P1;PMS_P2;Temp;Humidity;BMP_temperature;BMP_pressure;BME280_temperature;BME280_humidity;BME280_pressure;Samples;Min_cycle;Max_cycle;Signal;HPM_P1;HPM_P2
2022/10/06 00:01:32;;;;;;;;;;;15.10;99.90;;;;;;5034446;28;19905;-70
2022/10/06 00:03:58;;;;;;;;;;;15.10;99.90;;;;;;5034230;28;20579;-69
2022/10/06 00:06:23;;;;;;;;;;;15.10;99.90;;;;;;5034104;28;19948;-69
2022/10/06 00:08:49;;;;;;;;;;;15.10;99.90;;;;;;5033707;28;19920;-69
2022/10/06 00:11:16;;;;;;;;;;;15.10;99.90;;;;;;5034040;28;20039;-69
2022/10/06 00:13:41;;;;;;;;;;;15.10;99.90;;;;;;5033802;28;19912;-69
2022/10/06 00:16:10;;;;;;;;;;;15.00;99.90;;;;;;5034109;28;19905;-68
2022/10/06 00:18:36;;;;;;;;;;;15.00;99.90;;;;;;5033503;28;19913;-69
2022/10/06 00:21:03;;;;;;;;;;;15.00;99.90;;;;;;5033723;28;20317;-69
2022/10/06 00:23:28;;;;;;;;;;;15.00;99.90;;;;;;5048894;28;19909;-69
2022/10/06 00:25:54;;;;;;;;;;;15.00;99.90;;;;;;5033300;28;19917;-69
2022/10/06 00:28:20;;;;;;;;;;;15.00;99.90;;;;;;5033879;28;19909;-68
2022/10/06 00:30:45;;;;;;;;;;;14.90;99.90;;;;;;5033487;28;19909;-68
2022/10/06 00:33:14;;;;;;;;;;;14.90;99.90;;;;;;5032424;28;19923;-68
2022/10/06 00:35:40;;;;;;;;;;;14.90;99.90;;;;;;5033431;28;19992;-68
2022/10/06 00:38:06;;;;;;;;;;;14.90;99.90;;;;;;5033354;28;20358;-68
2022/10/06 00:40:31;;;;;;;;;;;14.80;99.90;;;;;;5033667;28;19960;-68
2022/10/06 00:42:58;;;;;;;;;;;14.80;99.90;;;;;;5033186;28;19916;-68
2022/10/06 00:45:26;;;;;;;;;;;14.80;99.90;;;;;;5033451;28;19971;-68
2022/10/06 00:47:53;;;;;;;;;;;14.80;99.90;;;;;;5033431;28;19909;-68
2022/10/06 00:50:18;;;;;;;;;;;14.70;99.90;;;;;;5032481;28;20571;-68
2022/10/06 00:52:44;;;;;;;;;;;14.70;99.90;;;;;;5034259;28;20007;-68
2022/10/06 00:55:09;;;;;;;;;;;14.70;99.90;;;;;;5042564;28;19919;-68
2022/10/06 00:57:36;;;;;;;;;;;14.70;99.90;;;;;;5044095;28;19999;-67
2022/10/06 01:00:03;;;;;;;;;;;14.70;99.90;;;;;;5040697;28;20401;-67
2022/10/06 01:02:36;;;;;;;;;;;14.70;99.90;;;;;;5040465;28;20005;-69
2022/10/06 01:05:02;;;;;;;;;;;14.70;99.90;;;;;;5039008;28;19940;-68
2022/10/06 01:07:28;;;;;;;;;;;14.70;99.90;;;;;;5041588;28;19954;-70
2022/10/06 01:09:54;;;;;;;;;;;14.70;99.90;;;;;;5043727;28;20326;-68
2022/10/06 01:12:21;;;;;;;;;;;14.60;99.90;;;;;;5032928;28;19926;-68
2022/10/06 01:14:46;;;;;;;;;;;14.60;99.90;;;;;;5042931;28;19963;-69
2022/10/06 01:17:15;;;;;;;;;;;14.60;99.90;;;;;;5041308;28;20303;-68
2022/10/06 01:19:49;;;;;;;;;;;14.60;99.90;;;;;;5041492;28;19960;-68
2022/10/06 01:22:16;;;;;;;;;;;14.60;99.90;;;;;;5041963;28;19909;-68
2022/10/06 01:24:43;;;;;;;;;;;14.60;99.90;;;;;;5040403;28;19905;-68
2022/10/06 01:27:10;;;;;;;;;;;14.60;99.90;;;;;;5042286;28;20277;-68
2022/10/06 01:29:36;;;;;;;;;;;14.60;99.90;;;;;;5033304;28;19912;-69
2022/10/06 01:32:02;;;;;;;;;;;14.60;99.90;;;;;;5041749;28;19912;-69
2022/10/06 01:34:28;;;;;;;;;;;14.60;99.90;;;;;;5041165;28;20262;-68
2022/10/06 01:36:53;;;;;;;;;;;14.60;99.90;;;;;;5042620;28;20175;-69
2022/10/06 01:39:19;;;;;;;;;;;14.60;99.90;;;;;;5037104;28;19919;-68
2022/10/06 01:41:46;;;;;;;;;;;14.60;99.90;;;;;;5032240;28;19911;-68
2022/10/06 01:44:12;;;;;;;;;;;14.60;99.90;;;;;;5030445;28;19909;-68
2022/10/06 01:46:38;;;;;;;;;;;14.60;99.90;;;;;;5031630;28;19941;-68
2022/10/06 01:49:03;;;;;;;;;;;14.60;99.90;;;;;;5031804;28;20369;-68
2022/10/06 01:51:29;;;;;;;;;;;14.60;99.90;;;;;;5032404;28;19911;-68
2022/10/06 01:53:54;;;;;;;;;;;14.60;99.90;;;;;;5032159;28;19913;-68
2022/10/06 01:56:20;;;;;;;;;;;14.60;99.90;;;;;;5032076;28;19908;-69
2022/10/06 01:58:45;;;;;;;;;;;14.60;99.90;;;;;;5034962;28;19932;-69
2022/10/06 02:01:11;;;;;;;;;;;14.60;99.90;;;;;;5035697;28;19913;-69
2022/10/06 02:03:37;;;;;;;;;;;14.60;99.90;;;;;;5034567;28;19909;-68
2022/10/06 02:06:03;;;;;;;;;;;14.60;99.90;;;;;;5016308;28;19937;-68
2022/10/06 02:08:28;;;;;;;;;;;14.50;99.90;;;;;;5035725;28;19967;-68
2022/10/06 02:10:54;;;;;;;;;;;14.50;99.90;;;;;;5036113;28;19912;-68
2022/10/06 02:13:22;;;;;;;;;;;14.60;99.90;;;;;;5036269;28;20370;-69
2022/10/06 02:15:48;;;;;;;;;;;14.50;99.90;;;;;;5036609;28;19909;-69
2022/10/06 02:18:13;;;;;;;;;;;14.50;99.90;;;;;;5036194;28;20266;-68
2022/10/06 02:20:39;;;;;;;;;;;14.50;99.90;;;;;;5035800;28;19913;-69
2022/10/06 02:23:04;;;;;;;;;;;14.40;99.90;;;;;;5033696;28;20007;-68
2022/10/06 02:25:30;;;;;;;;;;;14.40;99.90;;;;;;5033051;28;19916;-68
2022/10/06 02:27:55;;;;;;;;;;;14.40;99.90;;;;;;5034226;28;19913;-69
2022/10/06 02:30:21;;;;;;;;;;;14.40;99.90;;;;;;5031298;28;19920;-69
2022/10/06 02:32:46;;;;;;;;;;;14.50;99.90;;;;;;5035724;28;19909;-69
2022/10/06 02:35:12;;;;;;;;;;;14.50;99.90;;;;;;5035551;28;19936;-68
2022/10/06 02:37:38;;;;;;;;;;;14.50;99.90;;;;;;5035501;28;19905;-69
2022/10/06 02:40:03;;;;;;;;;;;14.50;99.90;;;;;;5035879;28;19913;-69
2022/10/06 02:42:29;;;;;;;;;;;14.50;99.90;;;;;;5035471;28;19911;-68
2022/10/06 02:44:57;;;;;;;;;;;14.40;99.90;;;;;;5035483;28;19909;-68
2022/10/06 02:47:23;;;;;;;;;;;14.40;99.90;;;;;;5035370;28;19912;-68
2022/10/06 02:49:49;;;;;;;;;;;14.40;99.90;;;;;;5035420;28;19905;-69
2022/10/06 02:52:14;;;;;;;;;;;14.40;99.90;;;;;;5033472;28;20007;-68
2022/10/06 02:54:40;;;;;;;;;;;14.40;99.90;;;;;;5035334;28;20381;-67
2022/10/06 02:57:06;;;;;;;;;;;14.40;99.90;;;;;;5034962;28;19960;-68
2022/10/06 02:59:32;;;;;;;;;;;14.40;99.90;;;;;;5030515;28;19978;-68
2022/10/06 03:01:58;;;;;;;;;;;14.40;99.90;;;;;;5015462;28;19905;-67
2022/10/06 03:04:23;;;;;;;;;;;14.40;99.90;;;;;;5024231;28;19912;-67
2022/10/06 03:06:49;;;;;;;;;;;14.40;99.90;;;;;;5034800;28;19905;-68
2022/10/06 03:09:14;;;;;;;;;;;14.30;99.90;;;;;;5034979;28;19909;-68
2022/10/06 03:11:41;;;;;;;;;;;14.30;99.90;;;;;;5034820;28;19939;-67
2022/10/06 03:14:07;;;;;;;;;;;14.30;99.90;;;;;;5034850;28;20418;-68
2022/10/06 03:16:34;;;;;;;;;;;14.30;99.90;;;;;;5034726;28;19924;-68
2022/10/06 03:19:00;;;;;;;;;;;14.30;99.90;;;;;;5034858;28;19908;-68
2022/10/06 03:21:28;;;;;;;;;;;14.30;99.90;;;;;;5035010;28;19909;-68
2022/10/06 03:23:55;;;;;;;;;;;14.30;99.90;;;;;;5034629;28;19905;-69
2022/10/06 03:26:21;;;;;;;;;;;14.30;99.90;;;;;;5034644;28;20275;-69
2022/10/06 03:28:47;;;;;;;;;;;14.20;99.90;;;;;;5034529;28;19909;-68
2022/10/06 03:31:13;;;;;;;;;;;14.20;99.90;;;;;;5034803;28;19951;-68
2022/10/06 03:33:39;;;;;;;;;;;14.20;99.90;;;;;;5034765;28;19912;-68
2022/10/06 03:36:05;;;;;;;;;;;14.20;99.90;;;;;;5034582;28;19909;-68
2022/10/06 03:38:33;;;;;;;;;;;14.20;99.90;;;;;;5034222;28;20358;-68
2022/10/06 03:41:06;;;;;;;;;;;14.20;99.90;;;;;;5034086;28;19909;-68
2022/10/06 03:43:32;;;;;;;;;;;14.20;99.90;;;;;;5034498;28;20330;-68
2022/10/06 03:45:59;;;;;;;;;;;14.20;99.90;;;;;;5034547;28;19909;-68
2022/10/06 03:48:32;;;;;;;;;;;14.10;99.90;;;;;;5034082;28;19915;-68
2022/10/06 03:51:00;;;;;;;;;;;14.20;99.90;;;;;;5034439;28;19909;-68
2022/10/06 03:53:26;;;;;;;;;;;14.20;99.90;;;;;;5022091;28;19909;-69
2022/10/06 03:55:59;;;;;;;;;;;14.10;99.90;;;;;;5014418;28;19910;-68
2022/10/06 03:58:25;;;;;;;;;;;14.10;99.90;;;;;;5024158;28;19932;-69
2022/10/06 04:00:57;;;;;;;;;;;14.10;99.90;;;;;;5034338;28;20256;-68
2022/10/06 04:03:22;;;;;;;;;;;14.10;99.90;;;;;;5033918;28;20425;-68
2022/10/06 04:05:51;;;;;;;;;;;14.10;99.90;;;;;;5034028;28;19909;-68
2022/10/06 04:08:17;;;;;;;;;;;14.00;99.90;;;;;;5033832;28;20382;-68
2022/10/06 04:10:43;;;;;;;;;;;14.00;99.90;;;;;;5033824;28;20379;-68
2022/10/06 04:13:08;;;;;;;;;;;14.00;99.90;;;;;;5034123;28;19925;-68
2022/10/06 04:15:34;;;;;;;;;;;14.00;99.90;;;;;;5034030;28;19955;-68
2022/10/06 04:17:59;;;;;;;;;;;14.00;99.90;;;;;;5033821;28;19905;-68
2022/10/06 04:20:25;;;;;;;;;;;14.00;99.90;;;;;;5033433;28;20281;-68
2022/10/06 04:22:50;;;;;;;;;;;14.10;99.90;;;;;;5033581;28;19967;-68
2022/10/06 04:25:16;;;;;;;;;;;14.00;99.90;;;;;;5033648;28;19913;-68
2022/10/06 04:27:41;;;;;;;;;;;14.00;99.90;;;;;;5033767;28;19905;-69
2022/10/06 04:30:07;;;;;;;;;;;14.00;99.90;;;;;;5034121;28;20599;-69
2022/10/06 04:32:33;;;;;;;;;;;14.00;99.90;;;;;;5033349;28;19908;-69
2022/10/06 04:34:58;;;;;;;;;;;14.00;99.90;;;;;;5033496;28;20313;-69
2022/10/06 04:37:23;;;;;;;;;;;14.00;99.90;;;;;;5033451;28;19909;-69
2022/10/06 04:39:49;;;;;;;;;;;14.00;99.90;;;;;;5033529;28;20282;-69
2022/10/06 04:42:14;;;;;;;;;;;14.10;99.90;;;;;;5032413;28;19905;-69
2022/10/06 04:44:40;;;;;;;;;;;14.00;99.90;;;;;;5031950;28;19952;-69
2022/10/06 04:47:05;;;;;;;;;;;14.10;99.90;;;;;;5033292;28;19909;-69
2022/10/06 04:49:31;;;;;;;;;;;14.10;99.90;;;;;;5033090;28;19951;-69
2022/10/06 04:51:56;;;;;;;;;;;14.10;99.90;;;;;;5033320;28;19909;-68
2022/10/06 04:54:22;;;;;;;;;;;14.00;99.90;;;;;;5013762;28;19913;-69
2022/10/06 04:56:47;;;;;;;;;;;14.00;99.90;;;;;;5013273;28;19972;-69
2022/10/06 04:59:13;;;;;;;;;;;14.10;99.90;;;;;;5013282;28;19913;-69
2022/10/06 05:01:38;;;;;;;;;;;14.00;99.90;;;;;;5013467;28;19980;-69
2022/10/06 05:04:04;;;;;;;;;;;14.00;99.90;;;;;;5013729;28;20004;-69
2022/10/06 05:06:32;;;;;;;;;;;13.90;99.90;;;;;;5024593;28;20404;-69
2022/10/06 05:08:58;;;;;;;;;;;13.90;99.90;;;;;;5033481;28;20000;-69
2022/10/06 05:11:24;;;;;;;;;;;13.90;99.90;;;;;;5032983;28;19927;-69
2022/10/06 05:13:50;;;;;;;;;;;13.90;99.90;;;;;;5033348;28;19905;-69
2022/10/06 05:16:16;;;;;;;;;;;13.90;99.90;;;;;;5033212;28;19939;-69
2022/10/06 05:18:42;;;;;;;;;;;13.90;99.90;;;;;;5033081;28;20339;-69
2022/10/06 05:21:10;;;;;;;;;;;13.90;99.90;;;;;;5033261;28;19916;-69
2022/10/06 05:23:37;;;;;;;;;;;13.80;99.90;;;;;;5032824;28;20371;-69
2022/10/06 05:26:03;;;;;;;;;;;13.80;99.90;;;;;;5033221;28;19905;-69
2022/10/06 05:28:29;;;;;;;;;;;13.80;99.90;;;;;;5032808;28;19917;-69
2022/10/06 05:31:00;;;;;;;;;;;13.80;99.90;;;;;;5033051;28;19936;-69
2022/10/06 05:33:27;;;;;;;;;;;13.80;99.90;;;;;;5032213;28;19905;-69
2022/10/06 05:35:54;;;;;;;;;;;13.80;99.90;;;;;;5032650;28;19905;-69
2022/10/06 05:38:20;;;;;;;;;;;13.80;99.90;;;;;;5032935;28;19948;-69
2022/10/06 05:40:45;;;;;;;;;;;13.80;99.90;;;;;;5032867;28;19955;-69
2022/10/06 05:43:11;;;;;;;;;;;13.70;99.90;;;;;;5032624;28;19909;-69
2022/10/06 05:45:36;;;;;;;;;;;13.80;99.90;;;;;;5033077;28;19936;-69
2022/10/06 05:48:02;;;;;;;;;;;13.70;99.90;;;;;;5032590;28;19951;-69
2022/10/06 05:50:27;;;;;;;;;;;13.80;99.90;;;;;;5033135;28;19905;-69
2022/10/06 05:52:53;;;;;;;;;;;13.80;99.90;;;;;;5032887;28;19909;-69
2022/10/06 05:55:18;;;;;;;;;;;13.70;99.90;;;;;;5032357;28;20275;-69
2022/10/06 05:57:44;;;;;;;;;;;13.70;99.90;;;;;;5032212;28;19913;-69
2022/10/06 06:00:10;;;;;;;;;;;13.70;99.90;;;;;;5032291;28;20394;-69
2022/10/06 06:02:35;;;;;;;;;;;13.80;99.90;;;;;;5032496;28;19927;-69
2022/10/06 06:05:00;;;;;;;;;;;13.70;99.90;;;;;;5032269;28;19905;-69
2022/10/06 06:07:26;;;;;;;;;;;13.70;99.90;;;;;;5032450;28;19912;-69
2022/10/06 06:09:52;;;;;;;;;;;13.70;99.90;;;;;;5032408;28;19905;-69
2022/10/06 06:12:17;;;;;;;;;;;13.80;99.90;;;;;;5032478;28;20003;-69
2022/10/06 06:17:30;;;;;;;;;;;13.90;99.90;;;;;;5032355;28;19916;-69
2022/10/06 06:19:56;;;;;;;;;;;13.90;99.90;;;;;;5032520;28;19984;-69
2022/10/06 06:22:21;;;;;;;;;;;13.90;99.90;;;;;;5032470;28;19909;-69
2022/10/06 06:24:47;;;;;;;;;;;13.90;99.90;;;;;;5032347;28;19912;-69
2022/10/06 06:27:12;;;;;;;;;;;13.90;99.90;;;;;;5032259;28;19935;-68
2022/10/06 06:29:38;;;;;;;;;;;13.90;99.90;;;;;;5032519;28;19905;-68
2022/10/06 06:32:04;;;;;;;;;;;14.00;99.90;;;;;;5031914;28;19915;-69
2022/10/06 06:34:30;;;;;;;;;;;14.10;99.90;;;;;;5032320;28;19913;-69
2022/10/06 06:36:57;;;;;;;;;;;14.10;99.90;;;;;;5032396;28;20408;-68
2022/10/06 06:39:23;;;;;;;;;;;14.20;99.90;;;;;;5029929;28;19917;-68
2022/10/06 06:41:49;;;;;;;;;;;14.20;99.90;;;;;;5031910;28;19928;-68
2022/10/06 06:44:15;;;;;;;;;;;14.20;99.90;;;;;;5034211;28;20392;-69
2022/10/06 06:46:48;;;;;;;;;;;14.20;99.90;;;;;;5035576;28;20346;-69
2022/10/06 06:49:14;;;;;;;;;;;14.30;99.90;;;;;;5035789;28;19905;-68
2022/10/06 06:51:40;;;;;;;;;;;14.30;99.90;;;;;;5036090;28;19905;-68
2022/10/06 06:54:07;;;;;;;;;;;14.40;99.90;;;;;;5035791;28;19906;-68
2022/10/06 06:56:37;;;;;;;;;;;14.50;99.90;;;;;;5035544;28;20002;-69
2022/10/06 06:59:05;;;;;;;;;;;14.60;99.90;;;;;;5035227;28;20660;-68
2022/10/06 07:01:30;;;;;;;;;;;14.60;99.90;;;;;;5035328;28;19999;-69
2022/10/06 07:03:57;;;;;;;;;;;14.70;99.90;;;;;;5035682;28;20004;-69
2022/10/06 07:06:25;;;;;;;;;;;14.80;99.90;;;;;;5035449;28;19956;-69
2022/10/06 07:08:51;;;;;;;;;;;14.90;99.90;;;;;;5035328;28;19909;-69
2022/10/06 07:11:21;;;;;;;;;;;14.90;99.90;;;;;;5035047;28;19917;-69
2022/10/06 07:13:50;;;;;;;;;;;14.90;99.90;;;;;;5034981;28;19932;-69
2022/10/06 07:27:20;;;;;;;;;;;15.10;99.90;;;;;;5035642;28;19912;-69
2022/10/06 07:29:45;;;;;;;;;;;15.00;99.90;;;;;;5035190;28;19909;-69
2022/10/06 07:32:11;;;;;;;;;;;15.00;99.90;;;;;;5035063;28;20339;-69
2022/10/06 07:34:38;;;;;;;;;;;15.10;99.90;;;;;;5034814;28;20355;-69
2022/10/06 07:37:03;;;;;;;;;;;15.20;99.90;;;;;;5034970;28;19912;-68
2022/10/06 07:39:30;;;;;;;;;;;15.30;99.90;;;;;;5034882;28;19909;-68
2022/10/06 07:41:56;;;;;;;;;;;15.40;99.90;;;;;;5035209;28;19932;-69
2022/10/06 07:44:22;;;;;;;;;;;15.60;99.90;;;;;;5035238;28;20292;-69
2022/10/06 07:46:47;;;;;;;;;;;15.70;99.90;;;;;;5034186;28;19916;-69
2022/10/06 07:49:16;;;;;;;;;;;15.80;99.90;;;;;;5034495;28;20412;-69
2022/10/06 07:51:42;;;;;;;;;;;15.80;99.90;;;;;;5024710;28;19931;-69
2022/10/06 07:54:07;;;;;;;;;;;15.90;99.90;;;;;;5030164;28;19923;-70
2022/10/06 07:56:33;;;;;;;;;;;16.10;99.90;;;;;;5033597;28;19905;-69
2022/10/06 07:58:58;;;;;;;;;;;16.20;99.90;;;;;;5030925;28;20397;-69
2022/10/06 08:01:26;;;;;;;;;;;16.30;99.90;;;;;;5034540;28;19920;-69
2022/10/06 08:03:51;;;;;;;;;;;16.40;99.90;;;;;;5033625;28;19959;-69
2022/10/06 08:06:18;;;;;;;;;;;16.60;99.90;;;;;;5034509;28;19952;-69
2022/10/06 08:08:44;;;;;;;;;;;16.90;99.90;;;;;;5034370;28;19912;-69
2022/10/06 08:11:10;;;;;;;;;;;17.30;99.90;;;;;;5034087;28;19924;-69
2022/10/06 08:13:37;;;;;;;;;;;17.60;99.80;;;;;;5034547;28;19905;-69
2022/10/06 08:16:03;;;;;;;;;;;18.50;99.30;;;;;;5034161;28;20000;-69
2022/10/06 08:18:29;;;;;;;;;;;19.30;97.40;;;;;;5034252;28;19905;-69
2022/10/06 08:20:54;;;;;;;;;;;19.40;97.00;;;;;;5032676;28;19924;-69
2022/10/06 08:23:21;;;;;;;;;;;19.10;96.70;;;;;;5034061;28;19931;-69
2022/10/06 08:25:50;;;;;;;;;;;19.10;96.90;;;;;;5034081;28;19929;-69
2022/10/06 08:28:16;;;;;;;;;;;19.60;96.30;;;;;;5033753;28;19904;-69
2022/10/06 08:30:41;;;;;;;;;;;20.10;95.40;;;;;;5033373;28;20374;-68
2022/10/06 08:33:07;;;;;;;;;;;20.00;95.50;;;;;;5033587;28;19924;-69
2022/10/06 08:35:32;;;;;;;;;;;20.40;95.30;;;;;;5033662;28;19905;-69
2022/10/06 08:37:58;;;;;;;;;;;20.90;94.40;;;;;;5033842;28;19913;-69
2022/10/06 08:40:24;;;;;;;;;;;21.30;93.60;;;;;;5033636;28;19917;-68
2022/10/06 08:42:52;;;;;;;;;;;21.00;93.50;;;;;;5034155;28;20343;-70
2022/10/06 08:45:23;;;;;;;;;;;20.40;93.70;;;;;;5049260;28;19913;-69
2022/10/06 08:48:03;;;;;;;;;;;19.90;94.20;;;;;;5024764;28;19948;-69
2022/10/06 08:50:31;;;;;;;;;;;19.80;94.40;;;;;;5032082;28;19905;-69
2022/10/06 08:53:05;;;;;;;;;;;19.40;95.00;;;;;;5026646;28;19933;-69
2022/10/06 08:55:36;;;;;;;;;;;19.10;95.50;;;;;;5027640;28;19909;-69
2022/10/06 08:58:20;;;;;;;;;;;18.90;95.60;;;;;;5016504;28;20247;-69
2022/10/06 09:00:45;;;;;;;;;;;18.70;96.10;;;;;;5019572;28;20362;-69
2022/10/06 09:03:21;;;;;;;;;;;18.90;95.30;;;;;;5033210;28;19916;-69
2022/10/06 09:05:47;;;;;;;;;;;19.40;94.90;;;;;;5013421;28;19988;-68
2022/10/06 09:08:12;;;;;;;;;;;20.30;94.10;;;;;;5031347;28;20007;-68
2022/10/06 09:10:38;;;;;;;;;;;20.70;93.00;;;;;;5031532;28;20358;-68
2022/10/06 09:13:16;;;;;;;;;;;20.40;93.40;;;;;;5031288;28;20373;-69
2022/10/06 09:15:48;;;;;;;;;;;20.50;93.20;;;;;;5030057;28;19996;-69
2022/10/06 09:18:26;;;;;;;;;;;21.50;92.30;;;;;;5028204;28;19912;-69
2022/10/06 09:21:00;;;;;;;;;;;22.40;91.00;;;;;;5025930;28;20011;-69
2022/10/06 09:23:48;;;;;;;;;;;23.00;90.00;;;;;;5031541;28;19935;-69
2022/10/06 09:26:15;;;;;;;;;;;23.10;89.50;;;;;;5012140;28;20254;-69
2022/10/06 09:28:46;;;;;;;;;;;23.60;87.70;;;;;;5013050;28;20016;-68
2022/10/06 09:31:22;;;;;;;;;;;23.80;87.00;;;;;;5013190;28;19999;-68
2022/10/06 09:33:48;;;;;;;;;;;24.00;86.90;;;;;;5026099;28;19999;-68
2022/10/06 09:36:14;;;;;;;;;;;24.10;85.80;;;;;;5030596;28;19905;-68
2022/10/06 09:38:46;;;;;;;;;;;24.10;86.10;;;;;;5031607;28;19932;-68
2022/10/06 09:41:13;;;;;;;;;;;24.70;85.20;;;;;;5031029;28;19947;-68
2022/10/06 09:43:39;;;;;;;;;;;24.90;84.40;;;;;;5028823;28;19936;-68
2022/10/06 09:46:18;;;;;;;;;;;24.50;84.80;;;;;;5031987;28;19984;-68
2022/10/06 09:48:43;;;;;;;;;;;24.20;85.20;;;;;;5033020;28;19909;-69
2022/10/06 09:51:13;;;;;;;;;;;23.90;86.20;;;;;;5029881;28;19909;-69
2022/10/06 09:53:43;;;;;;;;;;;23.50;86.90;;;;;;5031911;28;19913;-68
2022/10/06 09:56:13;;;;;;;;;;;23.50;87.10;;;;;;5029071;28;19916;-68
2022/10/06 09:58:38;;;;;;;;;;;23.40;86.80;;;;;;5030898;28;19916;-67
2022/10/06 10:01:08;;;;;;;;;;;23.50;87.00;;;;;;5029696;28;19913;-69
2022/10/06 10:04:02;;;;;;;;;;;23.90;86.70;;;;;;5032599;28;19909;-69
2022/10/06 10:06:28;;;;;;;;;;;23.90;85.00;;;;;;5025963;28;20278;-69
2022/10/06 10:09:12;;;;;;;;;;;24.30;84.60;;;;;;5030494;28;19916;-68
2022/10/06 10:14:21;;;;;;;;;;;24.90;83.30;;;;;;5030622;28;20607;-67
2022/10/06 10:16:47;;;;;;;;;;;25.20;82.00;;;;;;5029981;28;19945;-68
2022/10/06 10:19:35;;;;;;;;;;;25.50;82.20;;;;;;5034727;28;19913;-68
2022/10/06 10:22:01;;;;;;;;;;;25.80;79.80;;;;;;5036559;28;20076;-69
2022/10/06 10:24:46;;;;;;;;;;;25.60;78.80;;;;;;5032797;28;19909;-68
2022/10/06 10:27:16;;;;;;;;;;;25.70;78.90;;;;;;5034899;28;19908;-69
2022/10/06 10:29:48;;;;;;;;;;;25.90;79.10;;;;;;5030238;28;19956;-69
2022/10/06 10:32:20;;;;;;;;;;;25.90;78.80;;;;;;5035833;28;19912;-68
2022/10/06 10:34:45;;;;;;;;;;;25.10;80.70;;;;;;5031220;28;20338;-68
2022/10/06 10:37:14;;;;;;;;;;;25.30;80.30;;;;;;5031432;28;19919;-69
2022/10/06 10:39:43;;;;;;;;;;;25.20;80.20;;;;;;5031604;28;20341;-68
2022/10/06 10:42:17;;;;;;;;;;;24.90;80.10;;;;;;5034484;28;19905;-69
2022/10/06 10:44:49;;;;;;;;;;;24.20;81.50;;;;;;5031231;28;19909;-68
2022/10/06 10:47:19;;;;;;;;;;;23.20;82.30;;;;;;5032627;28;19920;-70
2022/10/06 10:49:49;;;;;;;;;;;22.70;84.20;;;;;;5031521;28;19944;-69
2022/10/06 10:52:19;;;;;;;;;;;22.80;84.90;;;;;;5033606;28;20007;-70
2022/10/06 10:54:53;;;;;;;;;;;23.10;84.60;;;;;;5033012;28;20008;-67
2022/10/06 10:57:21;;;;;;;;;;;23.20;83.80;;;;;;5035486;28;20344;-69
2022/10/06 10:59:51;;;;;;;;;;;22.80;84.20;;;;;;5035449;28;20429;-69
2022/10/06 11:02:18;;;;;;;;;;;22.60;85.50;;;;;;5035419;28;20334;-68
2022/10/06 11:04:48;;;;;;;;;;;22.70;86.00;;;;;;5035439;28;19905;-68
2022/10/06 11:07:18;;;;;;;;;;;22.80;85.30;;;;;;5035509;28;20007;-69
2022/10/06 11:09:51;;;;;;;;;;;22.60;86.50;;;;;;5035649;28;19905;-68
2022/10/06 11:12:36;;;;;;;;;;;22.50;86.60;;;;;;5034820;28;19917;-70
2022/10/06 11:15:11;;;;;;;;;;;22.60;86.90;;;;;;5034421;28;19931;-68
2022/10/06 11:17:45;;;;;;;;;;;22.90;86.30;;;;;;5035093;28;19915;-67
2022/10/06 11:20:35;;;;;;;;;;;23.20;85.20;;;;;;5034953;28;19917;-68
2022/10/06 11:23:01;;;;;;;;;;;23.10;84.40;;;;;;5034293;28;20329;-69
2022/10/06 11:25:26;;;;;;;;;;;23.20;84.00;;;;;;5034109;28;19909;-69
2022/10/06 11:28:01;;;;;;;;;;;23.00;84.20;;;;;;5033158;28;20290;-68
2022/10/06 11:30:28;;;;;;;;;;;22.80;85.40;;;;;;5033172;28;19909;-68
2022/10/06 11:33:00;;;;;;;;;;;22.40;85.10;;;;;;5034810;28;20362;-68
2022/10/06 11:35:27;;;;;;;;;;;21.90;87.30;;;;;;5034496;28;20007;-68
2022/10/06 11:38:11;;;;;;;;;;;21.60;88.40;;;;;;5034392;28;19913;-68
2022/10/06 11:40:43;;;;;;;;;;;21.80;88.20;;;;;;5034314;28;19948;-68
2022/10/06 11:43:09;;;;;;;;;;;22.20;86.90;;;;;;5034693;28;19951;-68
2022/10/06 11:45:58;;;;;;;;;;;22.20;86.10;;;;;;5034410;28;19913;-68
2022/10/06 11:48:25;;;;;;;;;;;21.90;88.00;;;;;;5033707;28;19909;-69
2022/10/06 11:50:54;;;;;;;;;;;21.80;88.60;;;;;;5034652;28;19936;-68
2022/10/06 11:53:22;;;;;;;;;;;21.80;88.50;;;;;;5034071;28;19917;-68
2022/10/06 11:56:08;;;;;;;;;;;21.90;88.80;;;;;;5034585;28;19948;-69
2022/10/06 11:58:52;;;;;;;;;;;21.80;88.50;;;;;;5033906;28;19909;-69
2022/10/06 12:01:26;;;;;;;;;;;22.00;87.90;;;;;;5034365;28;20007;-69
2022/10/06 12:04:18;;;;;;;;;;;22.10;86.70;;;;;;5034090;28;19931;-68
2022/10/06 12:06:50;;;;;;;;;;;21.80;87.70;;;;;;5032072;28;19905;-68
2022/10/06 12:09:29;;;;;;;;;;;21.10;88.90;;;;;;5034158;28;19913;-68
2022/10/06 12:12:13;;;;;;;;;;;20.70;90.10;;;;;;5033959;28;19921;-69
2022/10/06 12:14:43;;;;;;;;;;;20.60;90.20;;;;;;5033663;28;19956;-68
2022/10/06 12:17:17;;;;;;;;;;;20.90;89.70;;;;;;5033652;28;19948;-67
2022/10/06 12:20:10;;;;;;;;;;;20.70;90.30;;;;;;5033023;28;20370;-67
2022/10/06 12:22:56;;;;;;;;;;;20.90;90.20;;;;;;5033892;28;19916;-68
2022/10/06 12:25:30;;;;;;;;;;;21.20;87.70;;;;;;5033900;28;19944;-68
2022/10/06 12:27:58;;;;;;;;;;;21.40;88.30;;;;;;5033797;28;19913;-68
2022/10/06 12:30:46;;;;;;;;;;;21.50;86.80;;;;;;5034223;28;20374;-68
2022/10/06 12:33:16;;;;;;;;;;;21.70;86.20;;;;;;5033616;28;19959;-68
2022/10/06 12:35:42;;;;;;;;;;;22.10;86.40;;;;;;5033981;28;19993;-68
2022/10/06 12:38:27;;;;;;;;;;;22.40;85.00;;;;;;5033393;28;19905;-68
2022/10/06 12:40:54;;;;;;;;;;;22.70;84.60;;;;;;5032799;28;19917;-67
2022/10/06 12:43:22;;;;;;;;;;;22.60;84.60;;;;;;5033916;28;19912;-67
2022/10/06 12:45:57;;;;;;;;;;;22.30;83.90;;;;;;5032343;28;20270;-67
2022/10/06 12:48:22;;;;;;;;;;;22.00;84.50;;;;;;5033775;28;19955;-68
2022/10/06 12:50:50;;;;;;;;;;;21.70;85.80;;;;;;5033196;28;20297;-67
2022/10/06 12:53:19;;;;;;;;;;;21.40;86.60;;;;;;5033239;28;19939;-68
2022/10/06 12:55:47;;;;;;;;;;;21.10;87.40;;;;;;5028730;28;19912;-68
2022/10/06 12:58:33;;;;;;;;;;;21.00;87.80;;;;;;5028397;28;19916;-68
2022/10/06 13:01:03;;;;;;;;;;;20.90;88.30;;;;;;5030149;28;19960;-68
2022/10/06 13:03:29;;;;;;;;;;;21.00;87.30;;;;;;5030974;28;19931;-68
2022/10/06 13:05:58;;;;;;;;;;;21.00;87.50;;;;;;5031203;28;21121;-68
2022/10/06 13:08:25;;;;;;;;;;;20.70;88.50;;;;;;5033296;28;19905;-68
2022/10/06 13:10:50;;;;;;;;;;;20.50;90.10;;;;;;5033178;28;19913;-68
2022/10/06 13:13:22;;;;;;;;;;;20.40;90.40;;;;;;5033449;28;20000;-67
2022/10/06 13:15:47;;;;;;;;;;;20.30;91.00;;;;;;5030132;28;19944;-68
2022/10/06 13:18:14;;;;;;;;;;;20.40;90.80;;;;;;5032346;28;19920;-68
2022/10/06 13:20:52;;;;;;;;;;;20.40;90.30;;;;;;5029508;28;19921;-68
2022/10/06 13:23:17;;;;;;;;;;;20.40;90.50;;;;;;5031617;28;20418;-69
2022/10/06 13:25:45;;;;;;;;;;;20.50;90.30;;;;;;5032708;28;20000;-68
2022/10/06 13:28:21;;;;;;;;;;;20.40;90.40;;;;;;5029710;28;20321;-68
2022/10/06 13:30:57;;;;;;;;;;;20.30;90.70;;;;;;5031639;28;19956;-68
2022/10/06 13:33:24;;;;;;;;;;;20.30;90.80;;;;;;5013432;28;20323;-69
2022/10/06 13:35:51;;;;;;;;;;;20.20;90.80;;;;;;5014030;28;19975;-68
2022/10/06 13:38:17;;;;;;;;;;;20.10;91.30;;;;;;5013230;28;19909;-68
2022/10/06 13:40:43;;;;;;;;;;;20.20;91.20;;;;;;5023682;28;19920;-69
2022/10/06 13:43:14;;;;;;;;;;;20.20;91.10;;;;;;5031359;28;19909;-68
2022/10/06 13:45:43;;;;;;;;;;;20.10;91.20;;;;;;5032916;28;19905;-68
2022/10/06 13:48:17;;;;;;;;;;;20.10;91.30;;;;;;5033087;28;19905;-68
2022/10/06 13:50:46;;;;;;;;;;;19.90;91.20;;;;;;5032802;28;20350;-68
2022/10/06 13:53:23;;;;;;;;;;;19.80;91.20;;;;;;5032207;28;19958;-68
2022/10/06 13:55:49;;;;;;;;;;;19.80;91.60;;;;;;5036229;28;19909;-68
2022/10/06 13:58:18;;;;;;;;;;;19.70;91.70;;;;;;5035606;28;20248;-68
2022/10/06 14:00:59;;;;;;;;;;;19.60;91.70;;;;;;5024198;28;19924;-68
2022/10/06 14:03:33;;;;;;;;;;;19.50;91.60;;;;;;5035565;28;20270;-68
2022/10/06 14:06:05;;;;;;;;;;;19.40;91.70;;;;;;5023768;28;19905;-68
2022/10/06 14:08:31;;;;;;;;;;;19.30;91.70;;;;;;5017180;28;19906;-67
2022/10/06 14:11:06;;;;;;;;;;;19.20;91.60;;;;;;5015844;28;19967;-67
2022/10/06 14:13:32;;;;;;;;;;;19.20;91.80;;;;;;5015891;28;20007;-69
2022/10/06 14:16:06;;;;;;;;;;;19.10;92.30;;;;;;5036747;28;20369;-68
2022/10/06 14:18:35;;;;;;;;;;;19.10;91.70;;;;;;5034956;28;19963;-68
2022/10/06 14:21:20;;;;;;;;;;;19.00;91.40;;;;;;5032677;28;19921;-67
2022/10/06 14:23:47;;;;;;;;;;;18.90;91.20;;;;;;5034899;28;19909;-67
2022/10/06 14:26:13;;;;;;;;;;;18.80;91.40;;;;;;5032664;28;20016;-67
2022/10/06 14:28:39;;;;;;;;;;;18.70;91.80;;;;;;5033521;28;19916;-67
2022/10/06 14:31:05;;;;;;;;;;;18.70;91.70;;;;;;5035482;28;19944;-67
2022/10/06 14:33:32;;;;;;;;;;;18.70;91.90;;;;;;5032523;28;19978;-67
2022/10/06 14:35:58;;;;;;;;;;;18.70;91.90;;;;;;5035693;28;19912;-67
2022/10/06 14:38:24;;;;;;;;;;;18.60;91.90;;;;;;5030423;28;19913;-67
2022/10/06 14:40:49;;;;;;;;;;;18.70;92.30;;;;;;5033112;28;19913;-68